Time;durP1;ratioP1;P1;durP2;ratioP2;P2;SDS_P1;SDS_P2;PMS_P1;PMS_P2;Temp;Humidity;BMP_temperature;BMP_pressure;BME280_temperature;BME280_humidity;BME280_pressure;Samples;Min_cycle;Max_cycle;Signal;HPM_P1;HPM_P2
2022/03/31 00:01:39;;;;;;;;;;;;;;;22.91;40.52;98702.09;20671927;27;107304;-75
2022/03/31 00:11:40;;;;;;;;;;;;;;;22.87;40.66;98687.59;20686746;27;97738;-74
2022/03/31 00:21:40;;;;;;;;;;;;;;;22.86;40.41;98681.50;20691843;27;100659;-74
2022/03/31 00:31:41;;;;;;;;;;;;;;;22.86;40.56;98686.78;20685447;27;98840;-74
2022/03/31 00:41:41;;;;;;;;;;;;;;;22.84;40.64;98667.66;20698009;27;97967;-74
2022/03/31 00:51:43;;;;;;;;;;;;;;;22.84;40.57;98661.56;20697308;27;98565;-74
2022/03/31 01:01:44;;;;;;;;;;;;;;;22.82;40.65;98640.59;20691848;27;101210;-74
2022/03/31 01:11:45;;;;;;;;;;;;;;;22.83;40.73;98628.25;20693142;27;97495;-74
2022/03/31 01:21:46;;;;;;;;;;;;;;;22.82;40.55;98622.13;20690912;27;99477;-74
2022/03/31 01:31:47;;;;;;;;;;;;;;;22.80;40.52;98623.28;20687484;27;97336;-74
2022/03/31 01:41:47;;;;;;;;;;;;;;;22.79;40.59;98619.84;20678283;27;99807;-75
2022/03/31 01:51:48;;;;;;;;;;;;;;;22.77;40.58;98605.19;20678877;27;97769;-74
2022/03/31 02:01:48;;;;;;;;;;;;;;;22.78;41.02;98606.84;20681184;27;100184;-74
2022/03/31 02:11:49;;;;;;;;;;;;;;;22.77;40.63;98595.44;20685443;27;97015;-75
2022/03/31 02:21:50;;;;;;;;;;;;;;;22.74;40.68;98577.34;20679969;27;99249;-74
2022/03/31 02:31:50;;;;;;;;;;;;;;;22.74;40.84;98565.94;20676336;27;98897;-74
2022/03/31 02:41:53;;;;;;;;;;;;;;;22.70;41.13;98573.38;20670405;27;97988;-74
2022/03/31 02:51:54;;;;;;;;;;;;;;;22.71;41.05;98567.91;20678254;27;98018;-73
2022/03/31 03:01:55;;;;;;;;;;;;;;;22.71;40.92;98559.19;20686118;27;98353;-74
2022/03/31 03:11:55;;;;;;;;;;;;;;;22.68;40.99;98565.66;20684721;27;98606;-73
2022/03/31 03:21:57;;;;;;;;;;;;;;;22.67;41.01;98550.00;20683750;27;97215;-74
2022/03/31 03:31:57;;;;;;;;;;;;;;;22.67;41.07;98539.44;20683556;27;97822;-74
2022/03/31 03:41:58;;;;;;;;;;;;;;;22.63;40.97;98536.31;20675658;27;97026;-75
2022/03/31 03:51:58;;;;;;;;;;;;;;;22.63;41.26;98522.28;20688269;27;97631;-75
2022/03/31 04:02:02;;;;;;;;;;;;;;;22.63;41.03;98507.31;20686153;27;97667;-74
2022/03/31 04:12:02;;;;;;;;;;;;;;;22.61;41.24;98506.66;20692214;27;98598;-74
2022/03/31 04:22:03;;;;;;;;;;;;;;;22.64;41.38;98495.78;20680587;27;97956;-75
2022/03/31 04:32:04;;;;;;;;;;;;;;;22.76;42.70;98485.59;20679549;27;98626;-77
2022/03/31 04:42:05;;;;;;;;;;;;;;;22.80;43.23;98494.00;20725759;27;97560;-75
2022/03/31 04:52:06;;;;;;;;;;;;;;;22.83;42.87;98497.09;20691383;27;99000;-75
2022/03/31 05:02:06;;;;;;;;;;;;;;;22.86;43.04;98485.38;20679728;27;100543;-81
2022/03/31 05:12:07;;;;;;;;;;;;;;;22.84;43.14;98484.75;20700861;27;98585;-79
2022/03/31 05:22:08;;;;;;;;;;;;;;;22.80;41.95;98480.81;20694402;27;97816;-79
2022/03/31 05:32:11;;;;;;;;;;;;;;;22.84;42.91;98490.84;20703060;27;97672;-76
2022/03/31 05:42:11;;;;;;;;;;;;;;;22.11;34.93;98498.13;20685505;27;98997;-78
2022/03/31 05:52:12;;;;;;;;;;;;;;;21.90;36.60;98488.16;20673401;27;101099;-76
2022/03/31 06:02:12;;;;;;;;;;;;;;;22.12;36.80;98486.59;20670676;27;99149;-77
2022/03/31 06:12:13;;;;;;;;;;;;;;;22.16;37.04;98495.00;20691304;27;97442;-78
2022/03/31 06:22:13;;;;;;;;;;;;;;;22.23;38.84;98493.31;20693129;27;100553;-77
2022/03/31 06:32:14;;;;;;;;;;;;;;;22.29;39.35;98513.72;20677562;27;97724;-79
2022/03/31 06:42:14;;;;;;;;;;;;;;;22.36;40.53;98524.38;20706891;27;97429;-78
2022/03/31 06:52:15;;;;;;;;;;;;;;;22.41;40.57;98527.38;20688076;27;96969;-78
2022/03/31 07:02:16;;;;;;;;;;;;;;;22.45;40.67;98533.09;20697308;27;97236;-78
2022/03/31 07:12:16;;;;;;;;;;;;;;;22.48;41.21;98523.03;20688016;27;101539;-76
2022/03/31 07:22:17;;;;;;;;;;;;;;;22.52;41.27;98519.06;20703385;27;98147;-77
2022/03/31 07:32:18;;;;;;;;;;;;;;;22.53;41.75;98520.72;20711416;27;101626;-77
2022/03/31 07:42:18;;;;;;;;;;;;;;;22.55;41.69;98508.16;20705439;27;97668;-77
2022/03/31 07:52:21;;;;;;;;;;;;;;;22.57;41.83;98504.53;20706836;27;97960;-78
2022/03/31 08:02:24;;;;;;;;;;;;;;;22.57;41.90;98510.66;20708322;27;98872;-77
2022/03/31 08:12:25;;;;;;;;;;;;;;;22.59;42.07;98506.00;20712155;27;97412;-76
2022/03/31 08:22:26;;;;;;;;;;;;;;;22.59;42.35;98490.16;20709276;27;96955;-76
2022/03/31 08:32:26;;;;;;;;;;;;;;;22.60;41.95;98478.63;20698892;27;98371;-77
2022/03/31 08:42:27;;;;;;;;;;;;;;;22.63;42.05;98459.00;20707836;27;98240;-76
2022/03/31 08:52:27;;;;;;;;;;;;;;;22.65;42.06;98447.25;20702982;27;97473;-76
2022/03/31 09:02:28;;;;;;;;;;;;;;;22.68;42.47;98448.75;20694644;27;97940;-77
2022/03/31 09:12:38;;;;;;;;;;;;;;;22.66;42.14;98430.44;20698652;27;100501;-76
2022/03/31 09:22:45;;;;;;;;;;;;;;;22.67;42.34;98426.81;20705010;27;97373;-77
2022/03/31 09:32:49;;;;;;;;;;;;;;;22.69;42.12;98408.16;20710820;27;97639;-77
2022/03/31 09:42:59;;;;;;;;;;;;;;;22.70;42.10;98409.81;20674847;27;97949;-78
2022/03/31 09:53:01;;;;;;;;;;;;;;;22.70;42.33;98392.19;20668435;27;98626;-78
2022/03/31 10:03:02;;;;;;;;;;;;;;;22.69;42.22;98385.25;20678319;27;97344;-78
2022/03/31 10:13:10;;;;;;;;;;;;;;;22.71;42.06;98361.31;20676377;27;98743;-76
2022/03/31 10:33:38;;;;;;;;;;;;;;;22.68;42.68;98362.50;20680451;27;97525;-78
2022/03/31 10:43:46;;;;;;;;;;;;;;;22.70;42.53;98339.41;20688148;27;100826;-76
2022/03/31 10:53:49;;;;;;;;;;;;;;;22.75;46.17;98332.78;20671673;27;97638;-76
2022/03/31 11:03:50;;;;;;;;;;;;;;;22.77;46.30;98315.75;20677611;27;97040;-76
2022/03/31 11:13:51;;;;;;;;;;;;;;;22.80;44.85;98301.38;20689170;27;98050;-75
2022/03/31 11:23:56;;;;;;;;;;;;;;;22.80;44.52;98310.13;20694872;27;98214;-77
2022/03/31 11:33:56;;;;;;;;;;;;;;;22.79;44.12;98291.81;20697793;27;97493;-76
2022/03/31 11:43:59;;;;;;;;;;;;;;;22.82;44.17;98280.91;20687803;27;97994;-76
2022/03/31 11:54:06;;;;;;;;;;;;;;;22.86;44.22;98266.34;20687757;27;96982;-76
2022/03/31 12:04:08;;;;;;;;;;;;;;;22.86;43.98;98255.78;20694953;27;97443;-76
2022/03/31 12:14:10;;;;;;;;;;;;;;;22.86;44.84;98229.41;20702495;27;97024;-76
2022/03/31 12:24:12;;;;;;;;;;;;;;;22.88;44.34;98194.94;20697741;27;97603;-76
2022/03/31 12:34:16;;;;;;;;;;;;;;;22.87;44.50;98199.38;20688133;27;100596;-74
2022/03/31 12:44:20;;;;;;;;;;;;;;;22.86;44.54;98205.66;20688665;27;101223;-75
2022/03/31 12:54:23;;;;;;;;;;;;;;;22.85;44.09;98196.94;20675538;27;102403;-75
2022/03/31 13:04:23;;;;;;;;;;;;;;;22.86;44.37;98195.94;20696095;27;99732;-76
2022/03/31 13:14:24;;;;;;;;;;;;;;;22.85;44.46;98188.19;20678222;27;100738;-76
2022/03/31 13:24:24;;;;;;;;;;;;;;;22.85;44.36;98191.66;20686903;27;98618;-76
2022/03/31 13:34:29;;;;;;;;;;;;;;;22.86;44.57;98172.19;20685106;27;98230;-76
2022/03/31 13:44:30;;;;;;;;;;;;;;;22.86;44.65;98155.53;20698813;27;98376;-76
2022/03/31 13:54:34;;;;;;;;;;;;;;;22.87;44.41;98130.78;20688504;27;97838;-76
2022/03/31 14:04:35;;;;;;;;;;;;;;;22.87;44.28;98117.59;20680471;27;97226;-75
2022/03/31 14:14:36;;;;;;;;;;;;;;;22.86;44.29;98102.75;20695128;27;98287;-74
2022/03/31 14:24:36;;;;;;;;;;;;;;;22.86;44.40;98082.47;20677893;27;100880;-75
2022/03/31 14:34:38;;;;;;;;;;;;;;;22.85;44.52;98072.91;20690094;27;99796;-75
2022/03/31 14:44:40;;;;;;;;;;;;;;;22.88;44.27;98073.56;20695592;27;101046;-73
2022/03/31 14:54:40;;;;;;;;;;;;;;;22.83;44.85;98063.56;20665956;27;98753;-77
2022/03/31 15:04:40;;;;;;;;;;;;;;;22.86;45.04;98045.53;20691534;27;101000;-77
2022/03/31 15:14:42;;;;;;;;;;;;;;;22.90;45.00;98038.06;20715321;27;98331;-76
2022/03/31 15:24:43;;;;;;;;;;;;;;;22.89;44.98;98027.69;20727728;27;98031;-75
2022/03/31 15:34:44;;;;;;;;;;;;;;;22.91;44.92;98010.69;20684295;27;100598;-82
2022/03/31 15:44:48;;;;;;;;;;;;;;;22.92;44.87;98007.00;20705530;27;97487;-77
2022/03/31 15:54:51;;;;;;;;;;;;;;;22.90;44.98;98009.03;20726019;27;97073;-80
2022/03/31 16:04:52;;;;;;;;;;;;;;;22.91;44.99;97992.22;20726708;27;105388;-78
2022/03/31 16:14:52;;;;;;;;;;;;;;;22.91;45.09;97971.09;20700806;27;97200;-76
2022/03/31 16:24:53;;;;;;;;;;;;;;;22.90;44.96;97961.53;20665988;27;97933;-76
2022/03/31 16:34:54;;;;;;;;;;;;;;;22.91;45.02;97944.72;20671772;27;99856;-77
2022/03/31 16:44:54;;;;;;;;;;;;;;;22.90;45.11;97937.78;20702878;27;98286;-77
2022/03/31 16:54:55;;;;;;;;;;;;;;;22.91;45.24;97943.88;20711943;27;97622;-75
2022/03/31 17:04:55;;;;;;;;;;;;;;;22.93;47.99;97934.75;20698339;27;101356;-77
2022/03/31 17:14:57;;;;;;;;;;;;;;;23.02;50.65;97920.44;20710293;27;97497;-76
2022/03/31 17:24:57;;;;;;;;;;;;;;;23.08;52.43;97926.75;20711156;27;97084;-76
2022/03/31 17:34:58;;;;;;;;;;;;;;;23.05;53.11;97924.50;20711945;27;100671;-76
2022/03/31 17:44:58;;;;;;;;;;;;;;;22.95;48.71;97922.19;20693173;27;97176;-76
2022/03/31 17:54:59;;;;;;;;;;;;;;;22.81;46.98;97909.88;20705097;27;97877;-76
2022/03/31 18:04:59;;;;;;;;;;;;;;;22.75;46.62;97922.00;20709133;27;97577;-80
2022/03/31 18:15:00;;;;;;;;;;;;;;;22.69;47.07;97913.06;20702343;27;97796;-79
2022/03/31 18:25:00;;;;;;;;;;;;;;;22.85;47.54;97913.78;20738597;27;96860;-81
2022/03/31 18:35:01;;;;;;;;;;;;;;;23.03;47.84;97921.22;20724444;27;97540;-82
2022/03/31 18:45:02;;;;;;;;;;;;;;;23.13;47.69;97927.00;20707647;27;97754;-83
2022/03/31 18:55:05;;;;;;;;;;;;;;;23.25;47.93;97924.69;20700361;27;97898;-82
2022/03/31 19:05:06;;;;;;;;;;;;;;;23.34;47.71;97933.28;20716061;27;97604;-84
2022/03/31 19:15:08;;;;;;;;;;;;;;;23.28;46.79;97936.69;20725894;27;98027;-82
2022/03/31 19:25:09;;;;;;;;;;;;;;;23.25;47.15;97929.94;20737207;27;98406;-85
2022/03/31 19:35:15;;;;;;;;;;;;;;;23.24;46.50;97922.25;20731852;27;101370;-85
2022/03/31 19:45:16;;;;;;;;;;;;;;;23.08;47.30;97920.66;20741031;27;97982;-85
2022/03/31 19:55:16;;;;;;;;;;;;;;;23.00;47.30;97919.78;20739124;27;97329;-85
2022/03/31 20:05:17;;;;;;;;;;;;;;;22.95;47.44;97914.28;20733132;27;98264;-84
2022/03/31 20:15:17;;;;;;;;;;;;;;;22.93;47.54;97907.56;20747057;27;96873;-85
2022/03/31 20:25:17;;;;;;;;;;;;;;;22.89;48.03;97898.38;20738746;27;97128;-81
2022/03/31 20:35:18;;;;;;;;;;;;;;;22.84;48.39;97897.13;20747309;27;97033;-83
2022/03/31 20:45:18;;;;;;;;;;;;;;;22.89;48.52;97904.50;20715359;27;97328;-80
2022/03/31 20:55:19;;;;;;;;;;;;;;;22.98;49.31;97891.97;20692084;27;97142;-82
2022/03/31 21:05:20;;;;;;;;;;;;;;;22.91;49.10;97878.75;20720359;27;98103;-83
2022/03/31 21:15:21;;;;;;;;;;;;;;;22.87;49.02;97880.09;20697170;27;97789;-84
2022/03/31 21:25:24;;;;;;;;;;;;;;;22.83;49.02;97884.94;20712482;27;96793;-84
2022/03/31 21:35:24;;;;;;;;;;;;;;;22.77;48.94;97882.28;20720668;27;97243;-83
2022/03/31 21:45:24;;;;;;;;;;;;;;;22.79;48.64;97873.16;20717568;27;97634;-84
2022/03/31 21:55:25;;;;;;;;;;;;;;;22.78;48.60;97873.34;20723761;27;97350;-84
2022/03/31 22:05:27;;;;;;;;;;;;;;;22.73;48.81;97866.00;20713047;27;97021;-84
2022/03/31 22:15:32;;;;;;;;;;;;;;;22.71;48.42;97858.25;20703750;27;98195;-84
2022/03/31 22:25:34;;;;;;;;;;;;;;;22.70;48.62;97855.81;20702842;27;97637;-85
2022/03/31 22:35:34;;;;;;;;;;;;;;;22.69;48.29;97856.81;20699261;27;100153;-85
2022/03/31 22:45:35;;;;;;;;;;;;;;;22.68;48.49;97874.47;20709680;27;98445;-85
2022/03/31 22:55:35;;;;;;;;;;;;;;;22.68;48.38;97871.03;20706716;27;97251;-85
2022/03/31 23:05:40;;;;;;;;;;;;;;;22.67;48.22;97878.13;20701146;27;96973;-86
2022/03/31 23:15:42;;;;;;;;;;;;;;;22.65;48.27;97872.22;20710897;27;97494;-83
2022/03/31 23:25:43;;;;;;;;;;;;;;;22.64;48.36;97862.69;20698198;27;98002;-82
2022/03/31 23:35:43;;;;;;;;;;;;;;;22.63;48.56;97865.50;20703636;27;98498;-82
2022/03/31 23:45:44;;;;;;;;;;;;;;;22.61;48.21;97878.06;20705121;27;97748;-84
2022/03/31 23:55:45;;;;;;;;;;;;;;;22.60;48.25;97864.06;20700634;27;98590;-84
